sensor_id;sensor_type;location;lat;lon;timestamp;P1;durP1;ratioP1;P2;durP2;ratioP2
77158;SDS011;66129;45.890;13.714;2023-02-02T00:02:03;126.45;;;51.20;;
77158;SDS011;66129;45.890;13.714;2023-02-02T00:04:30;129.98;;;53.63;;
77158;SDS011;66129;45.890;13.714;2023-02-02T00:06:57;118.63;;;51.90;;
77158;SDS011;66129;45.890;13.714;2023-02-02T00:09:25;126.53;;;51.78;;
77158;SDS011;66129;45.890;13.714;2023-02-02T00:11:55;139.50;;;55.67;;
77158;SDS011;66129;45.890;13.714;2023-02-02T00:14:21;131.40;;;51.75;;
77158;SDS011;66129;45.890;13.714;2023-02-02T00:16:48;134.05;;;56.38;;
77158;SDS011;66129;45.890;13.714;2023-02-02T00:21:45;129.00;;;54.08;;
77158;SDS011;66129;45.890;13.714;2023-02-02T00:24:11;117.57;;;51.72;;
77158;SDS011;66129;45.890;13.714;2023-02-02T00:26:38;133.13;;;56.42;;
77158;SDS011;66129;45.890;13.714;2023-02-02T00:29:06;125.00;;;53.42;;
77158;SDS011;66129;45.890;13.714;2023-02-02T00:31:35;158.82;;;60.33;;
77158;SDS011;66129;45.890;13.714;2023-02-02T00:34:00;158.10;;;59.15;;
77158;SDS011;66129;45.890;13.714;2023-02-02T00:36:26;136.45;;;55.53;;
77158;SDS011;66129;45.890;13.714;2023-02-02T00:38:51;133.63;;;54.35;;
77158;SDS011;66129;45.890;13.714;2023-02-02T00:41:17;128.02;;;51.72;;
77158;SDS011;66129;45.890;13.714;2023-02-02T00:43:43;133.25;;;54.78;;
77158;SDS011;66129;45.890;13.714;2023-02-02T00:46:14;131.38;;;56.30;;
77158;SDS011;66129;45.890;13.714;2023-02-02T00:48:42;125.53;;;53.28;;
77158;SDS011;66129;45.890;13.714;2023-02-02T00:51:08;125.80;;;55.45;;
77158;SDS011;66129;45.890;13.714;2023-02-02T00:53:33;125.30;;;52.38;;
77158;SDS011;66129;45.890;13.714;2023-02-02T00:55:59;131.98;;;52.25;;
77158;SDS011;66129;45.890;13.714;2023-02-02T00:58:24;121.47;;;52.33;;
77158;SDS011;66129;45.890;13.714;2023-02-02T01:00:50;126.28;;;53.95;;
77158;SDS011;66129;45.890;13.714;2023-02-02T01:03:16;129.98;;;56.03;;
77158;SDS011;66129;45.890;13.714;2023-02-02T01:05:42;130.20;;;52.28;;
77158;SDS011;66129;45.890;13.714;2023-02-02T01:08:07;136.85;;;56.10;;
77158;SDS011;66129;45.890;13.714;2023-02-02T01:10:33;128.90;;;56.42;;
77158;SDS011;66129;45.890;13.714;2023-02-02T01:12:59;137.38;;;54.03;;
77158;SDS011;66129;45.890;13.714;2023-02-02T01:15:25;130.77;;;52.08;;
77158;SDS011;66129;45.890;13.714;2023-02-02T01:17:50;117.07;;;52.58;;
77158;SDS011;66129;45.890;13.714;2023-02-02T01:20:17;128.27;;;49.65;;
77158;SDS011;66129;45.890;13.714;2023-02-02T01:22:44;108.25;;;47.63;;
77158;SDS011;66129;45.890;13.714;2023-02-02T01:25:10;115.90;;;50.92;;
77158;SDS011;66129;45.890;13.714;2023-02-02T01:27:36;127.60;;;52.55;;
77158;SDS011;66129;45.890;13.714;2023-02-02T01:30:01;119.20;;;47.88;;
77158;SDS011;66129;45.890;13.714;2023-02-02T01:32:27;111.07;;;49.70;;
77158;SDS011;66129;45.890;13.714;2023-02-02T01:34:52;119.82;;;45.65;;
77158;SDS011;66129;45.890;13.714;2023-02-02T01:37:18;114.65;;;47.53;;
77158;SDS011;66129;45.890;13.714;2023-02-02T01:39:43;122.93;;;49.97;;
77158;SDS011;66129;45.890;13.714;2023-02-02T01:42:13;122.85;;;49.78;;
77158;SDS011;66129;45.890;13.714;2023-02-02T01:47:31;127.25;;;51.55;;
77158;SDS011;66129;45.890;13.714;2023-02-02T01:50:03;142.18;;;50.78;;
77158;SDS011;66129;45.890;13.714;2023-02-02T01:52:31;106.28;;;46.55;;
77158;SDS011;66129;45.890;13.714;2023-02-02T01:54:59;112.88;;;48.47;;
77158;SDS011;66129;45.890;13.714;2023-02-02T01:57:34;135.48;;;47.85;;
77158;SDS011;66129;45.890;13.714;2023-02-02T02:00:04;126.43;;;50.55;;
77158;SDS011;66129;45.890;13.714;2023-02-02T02:02:32;126.45;;;51.28;;
77158;SDS011;66129;45.890;13.714;2023-02-02T02:04:58;139.13;;;52.67;;
77158;SDS011;66129;45.890;13.714;2023-02-02T02:07:26;112.88;;;50.97;;
77158;SDS011;66129;45.890;13.714;2023-02-02T02:09:53;124.03;;;50.00;;
77158;SDS011;66129;45.890;13.714;2023-02-02T02:12:18;124.22;;;51.65;;
77158;SDS011;66129;45.890;13.714;2023-02-02T02:14:44;119.72;;;50.42;;
77158;SDS011;66129;45.890;13.714;2023-02-02T02:20:28;112.18;;;45.08;;
77158;SDS011;66129;45.890;13.714;2023-02-02T02:23:43;107.18;;;45.90;;
77158;SDS011;66129;45.890;13.714;2023-02-02T02:29:40;112.25;;;49.15;;
77158;SDS011;66129;45.890;13.714;2023-02-02T02:32:35;105.82;;;45.67;;
77158;SDS011;66129;45.890;13.714;2023-02-02T02:35:20;106.82;;;48.78;;
77158;SDS011;66129;45.890;13.714;2023-02-02T02:43:23;95.40;;;40.65;;
77158;SDS011;66129;45.890;13.714;2023-02-02T02:45:51;98.53;;;42.00;;
77158;SDS011;66129;45.890;13.714;2023-02-02T02:48:17;96.65;;;43.65;;
77158;SDS011;66129;45.890;13.714;2023-02-02T02:50:43;101.60;;;46.50;;
77158;SDS011;66129;45.890;13.714;2023-02-02T02:53:13;102.50;;;42.00;;
77158;SDS011;66129;45.890;13.714;2023-02-02T02:55:48;103.10;;;46.58;;
77158;SDS011;66129;45.890;13.714;2023-02-02T02:58:25;99.07;;;43.25;;
77158;SDS011;66129;45.890;13.714;2023-02-02T03:01:01;103.90;;;45.67;;
77158;SDS011;66129;45.890;13.714;2023-02-02T03:06:40;93.07;;;43.90;;
77158;SDS011;66129;45.890;13.714;2023-02-02T03:09:15;115.10;;;46.67;;
77158;SDS011;66129;45.890;13.714;2023-02-02T03:11:46;102.55;;;45.38;;
77158;SDS011;66129;45.890;13.714;2023-02-02T03:14:11;102.32;;;44.00;;
77158;SDS011;66129;45.890;13.714;2023-02-02T03:16:37;104.43;;;46.47;;
77158;SDS011;66129;45.890;13.714;2023-02-02T03:19:04;106.38;;;44.85;;
77158;SDS011;66129;45.890;13.714;2023-02-02T03:21:31;110.45;;;48.28;;
77158;SDS011;66129;45.890;13.714;2023-02-02T03:23:57;102.28;;;43.60;;
77158;SDS011;66129;45.890;13.714;2023-02-02T03:26:23;109.07;;;47.30;;
77158;SDS011;66129;45.890;13.714;2023-02-02T03:28:50;103.93;;;46.00;;
77158;SDS011;66129;45.890;13.714;2023-02-02T03:31:16;117.80;;;46.33;;
77158;SDS011;66129;45.890;13.714;2023-02-02T03:33:42;114.25;;;48.60;;
77158;SDS011;66129;45.890;13.714;2023-02-02T03:36:08;112.70;;;46.67;;
77158;SDS011;66129;45.890;13.714;2023-02-02T03:38:34;112.22;;;48.70;;
77158;SDS011;66129;45.890;13.714;2023-02-02T03:40:59;109.80;;;47.47;;
77158;SDS011;66129;45.890;13.714;2023-02-02T03:43:25;107.55;;;46.08;;
77158;SDS011;66129;45.890;13.714;2023-02-02T03:45:57;100.65;;;44.05;;
77158;SDS011;66129;45.890;13.714;2023-02-02T03:48:24;97.25;;;44.45;;
77158;SDS011;66129;45.890;13.714;2023-02-02T03:50:50;98.32;;;44.30;;
77158;SDS011;66129;45.890;13.714;2023-02-02T03:53:16;97.20;;;43.78;;
77158;SDS011;66129;45.890;13.714;2023-02-02T03:55:41;106.28;;;45.38;;
77158;SDS011;66129;45.890;13.714;2023-02-02T03:58:07;111.22;;;46.90;;
77158;SDS011;66129;45.890;13.714;2023-02-02T04:00:32;104.75;;;48.15;;
77158;SDS011;66129;45.890;13.714;2023-02-02T04:02:58;105.32;;;45.05;;
77158;SDS011;66129;45.890;13.714;2023-02-02T04:05:23;101.60;;;43.97;;
77158;SDS011;66129;45.890;13.714;2023-02-02T04:07:49;104.97;;;45.67;;
77158;SDS011;66129;45.890;13.714;2023-02-02T04:10:15;116.43;;;47.38;;
77158;SDS011;66129;45.890;13.714;2023-02-02T04:12:41;113.05;;;47.33;;
77158;SDS011;66129;45.890;13.714;2023-02-02T04:15:07;100.35;;;44.80;;
77158;SDS011;66129;45.890;13.714;2023-02-02T04:17:33;98.90;;;44.70;;
77158;SDS011;66129;45.890;13.714;2023-02-02T04:19:59;95.70;;;42.78;;
77158;SDS011;66129;45.890;13.714;2023-02-02T04:22:25;94.70;;;44.42;;
77158;SDS011;66129;45.890;13.714;2023-02-02T04:24:51;98.55;;;43.85;;
77158;SDS011;66129;45.890;13.714;2023-02-02T04:27:16;93.15;;;41.97;;
77158;SDS011;66129;45.890;13.714;2023-02-02T04:29:42;96.80;;;43.67;;
77158;SDS011;66129;45.890;13.714;2023-02-02T04:32:07;109.30;;;44.88;;
77158;SDS011;66129;45.890;13.714;2023-02-02T04:34:33;98.18;;;43.72;;
77158;SDS011;66129;45.890;13.714;2023-02-02T04:36:58;99.53;;;44.63;;
77158;SDS011;66129;45.890;13.714;2023-02-02T04:39:24;90.75;;;43.15;;
77158;SDS011;66129;45.890;13.714;2023-02-02T04:41:49;96.72;;;41.60;;
77158;SDS011;66129;45.890;13.714;2023-02-02T04:44:15;102.10;;;43.80;;
77158;SDS011;66129;45.890;13.714;2023-02-02T04:46:43;97.28;;;44.13;;
77158;SDS011;66129;45.890;13.714;2023-02-02T04:49:10;107.20;;;45.33;;
77158;SDS011;66129;45.890;13.714;2023-02-02T04:51:36;90.55;;;42.00;;
77158;SDS011;66129;45.890;13.714;2023-02-02T04:54:05;109.22;;;46.95;;
77158;SDS011;66129;45.890;13.714;2023-02-02T04:56:31;101.70;;;42.08;;
77158;SDS011;66129;45.890;13.714;2023-02-02T04:58:57;95.05;;;43.65;;
77158;SDS011;66129;45.890;13.714;2023-02-02T05:01:23;95.38;;;43.03;;
77158;SDS011;66129;45.890;13.714;2023-02-02T05:03:49;95.88;;;40.17;;
77158;SDS011;66129;45.890;13.714;2023-02-02T05:06:15;91.28;;;42.22;;
77158;SDS011;66129;45.890;13.714;2023-02-02T05:08:43;96.47;;;44.13;;
77158;SDS011;66129;45.890;13.714;2023-02-02T05:11:09;96.85;;;42.35;;
77158;SDS011;66129;45.890;13.714;2023-02-02T05:13:36;95.43;;;41.50;;
77158;SDS011;66129;45.890;13.714;2023-02-02T05:16:02;102.47;;;42.20;;
77158;SDS011;66129;45.890;13.714;2023-02-02T05:18:27;95.90;;;41.28;;
77158;SDS011;66129;45.890;13.714;2023-02-02T05:20:57;116.82;;;51.28;;
77158;SDS011;66129;45.890;13.714;2023-02-02T05:23:23;105.50;;;48.78;;
77158;SDS011;66129;45.890;13.714;2023-02-02T05:25:52;108.38;;;48.38;;
77158;SDS011;66129;45.890;13.714;2023-02-02T05:28:18;102.85;;;46.90;;
77158;SDS011;66129;45.890;13.714;2023-02-02T05:30:45;96.40;;;44.22;;
77158;SDS011;66129;45.890;13.714;2023-02-02T05:33:10;114.30;;;48.35;;
77158;SDS011;66129;45.890;13.714;2023-02-02T05:35:36;93.45;;;41.83;;
77158;SDS011;66129;45.890;13.714;2023-02-02T05:38:01;97.80;;;43.63;;
77158;SDS011;66129;45.890;13.714;2023-02-02T05:40:27;109.18;;;45.25;;
77158;SDS011;66129;45.890;13.714;2023-02-02T05:42:53;98.95;;;45.67;;
77158;SDS011;66129;45.890;13.714;2023-02-02T05:45:19;90.43;;;42.00;;
77158;SDS011;66129;45.890;13.714;2023-02-02T05:47:44;87.32;;;42.30;;
77158;SDS011;66129;45.890;13.714;2023-02-02T05:50:10;95.63;;;41.05;;
77158;SDS011;66129;45.890;13.714;2023-02-02T05:52:35;100.55;;;46.47;;
77158;SDS011;66129;45.890;13.714;2023-02-02T05:55:03;93.80;;;39.47;;
77158;SDS011;66129;45.890;13.714;2023-02-02T05:57:29;86.38;;;36.50;;
77158;SDS011;66129;45.890;13.714;2023-02-02T05:59:55;81.78;;;36.10;;
77158;SDS011;66129;45.890;13.714;2023-02-02T06:02:21;89.35;;;38.88;;
77158;SDS011;66129;45.890;13.714;2023-02-02T06:04:47;101.47;;;41.15;;
77158;SDS011;66129;45.890;13.714;2023-02-02T06:07:13;101.80;;;41.03;;
77158;SDS011;66129;45.890;13.714;2023-02-02T06:09:38;101.50;;;42.92;;
77158;SDS011;66129;45.890;13.714;2023-02-02T06:12:04;160.57;;;62.80;;
77158;SDS011;66129;45.890;13.714;2023-02-02T06:14:30;113.13;;;51.70;;
77158;SDS011;66129;45.890;13.714;2023-02-02T06:16:56;129.68;;;57.58;;
77158;SDS011;66129;45.890;13.714;2023-02-02T06:19:22;121.05;;;52.47;;
77158;SDS011;66129;45.890;13.714;2023-02-02T06:21:51;98.78;;;41.97;;
77158;SDS011;66129;45.890;13.714;2023-02-02T06:24:16;84.90;;;39.58;;
77158;SDS011;66129;45.890;13.714;2023-02-02T06:26:42;113.38;;;47.33;;
77158;SDS011;66129;45.890;13.714;2023-02-02T06:29:11;114.80;;;51.65;;
77158;SDS011;66129;45.890;13.714;2023-02-02T06:31:37;133.55;;;46.55;;
77158;SDS011;66129;45.890;13.714;2023-02-02T06:34:03;127.32;;;51.95;;
77158;SDS011;66129;45.890;13.714;2023-02-02T06:36:28;135.73;;;55.97;;
77158;SDS011;66129;45.890;13.714;2023-02-02T06:38:55;130.40;;;52.42;;
77158;SDS011;66129;45.890;13.714;2023-02-02T06:41:21;123.25;;;50.72;;
77158;SDS011;66129;45.890;13.714;2023-02-02T06:43:47;102.35;;;43.30;;
77158;SDS011;66129;45.890;13.714;2023-02-02T06:46:14;88.20;;;39.78;;
77158;SDS011;66129;45.890;13.714;2023-02-02T06:48:40;106.03;;;49.35;;
77158;SDS011;66129;45.890;13.714;2023-02-02T06:51:05;104.85;;;42.85;;
77158;SDS011;66129;45.890;13.714;2023-02-02T06:53:32;143.48;;;60.55;;
77158;SDS011;66129;45.890;13.714;2023-02-02T06:55:58;197.55;;;92.43;;
77158;SDS011;66129;45.890;13.714;2023-02-02T06:58:26;205.30;;;88.95;;
77158;SDS011;66129;45.890;13.714;2023-02-02T07:00:52;180.10;;;80.70;;
77158;SDS011;66129;45.890;13.714;2023-02-02T07:03:18;137.00;;;61.40;;
77158;SDS011;66129;45.890;13.714;2023-02-02T07:05:48;119.90;;;53.15;;
77158;SDS011;66129;45.890;13.714;2023-02-02T07:08:14;119.47;;;52.25;;
77158;SDS011;66129;45.890;13.714;2023-02-02T07:10:39;117.50;;;51.05;;
77158;SDS011;66129;45.890;13.714;2023-02-02T07:13:05;165.02;;;69.65;;
77158;SDS011;66129;45.890;13.714;2023-02-02T07:15:31;119.03;;;47.13;;
77158;SDS011;66129;45.890;13.714;2023-02-02T07:17:58;96.13;;;41.35;;
77158;SDS011;66129;45.890;13.714;2023-02-02T07:20:24;95.88;;;44.42;;
77158;SDS011;66129;45.890;13.714;2023-02-02T07:22:50;87.88;;;41.58;;
77158;SDS011;66129;45.890;13.714;2023-02-02T07:25:16;96.93;;;41.97;;
77158;SDS011;66129;45.890;13.714;2023-02-02T07:27:41;129.02;;;61.05;;
77158;SDS011;66129;45.890;13.714;2023-02-02T07:30:07;140.70;;;70.45;;
77158;SDS011;66129;45.890;13.714;2023-02-02T07:32:34;204.43;;;102.75;;
77158;SDS011;66129;45.890;13.714;2023-02-02T07:34:59;250.75;;;104.45;;
77158;SDS011;66129;45.890;13.714;2023-02-02T07:37:25;179.45;;;81.22;;
77158;SDS011;66129;45.890;13.714;2023-02-02T07:39:52;142.45;;;65.45;;
77158;SDS011;66129;45.890;13.714;2023-02-02T07:42:17;116.22;;;57.45;;
77158;SDS011;66129;45.890;13.714;2023-02-02T07:44:43;98.88;;;46.45;;
77158;SDS011;66129;45.890;13.714;2023-02-02T07:47:08;103.15;;;49.50;;
77158;SDS011;66129;45.890;13.714;2023-02-02T07:49:34;94.55;;;48.65;;
77158;SDS011;66129;45.890;13.714;2023-02-02T07:51:59;92.75;;;46.40;;
77158;SDS011;66129;45.890;13.714;2023-02-02T07:54:25;90.07;;;40.05;;
77158;SDS011;66129;45.890;13.714;2023-02-02T07:56:50;78.32;;;41.90;;
77158;SDS011;66129;45.890;13.714;2023-02-02T07:59:16;70.82;;;35.47;;
77158;SDS011;66129;45.890;13.714;2023-02-02T08:01:41;75.18;;;35.38;;
77158;SDS011;66129;45.890;13.714;2023-02-02T08:04:07;77.63;;;36.53;;
77158;SDS011;66129;45.890;13.714;2023-02-02T08:06:33;93.55;;;49.35;;
77158;SDS011;66129;45.890;13.714;2023-02-02T08:09:01;85.82;;;41.28;;
77158;SDS011;66129;45.890;13.714;2023-02-02T08:11:29;76.97;;;38.70;;
77158;SDS011;66129;45.890;13.714;2023-02-02T08:13:56;70.97;;;34.30;;
77158;SDS011;66129;45.890;13.714;2023-02-02T08:16:23;75.50;;;36.25;;
77158;SDS011;66129;45.890;13.714;2023-02-02T08:18:49;72.43;;;34.45;;
77158;SDS011;66129;45.890;13.714;2023-02-02T08:21:15;68.57;;;35.25;;
77158;SDS011;66129;45.890;13.714;2023-02-02T08:23:42;70.50;;;33.85;;
77158;SDS011;66129;45.890;13.714;2023-02-02T08:26:19;69.18;;;34.08;;
77158;SDS011;66129;45.890;13.714;2023-02-02T08:28:56;62.38;;;32.65;;
77158;SDS011;66129;45.890;13.714;2023-02-02T08:31:25;63.33;;;33.38;;
77158;SDS011;66129;45.890;13.714;2023-02-02T08:33:53;69.70;;;33.58;;
77158;SDS011;66129;45.890;13.714;2023-02-02T08:36:20;72.00;;;36.15;;
77158;SDS011;66129;45.890;13.714;2023-02-02T08:38:47;63.50;;;31.40;;
77158;SDS011;66129;45.890;13.714;2023-02-02T08:41:15;72.00;;;33.35;;
77158;SDS011;66129;45.890;13.714;2023-02-02T08:43:43;73.93;;;36.20;;
77158;SDS011;66129;45.890;13.714;2023-02-02T08:46:09;70.53;;;35.75;;
77158;SDS011;66129;45.890;13.714;2023-02-02T08:48:36;76.97;;;35.92;;
77158;SDS011;66129;45.890;13.714;2023-02-02T08:51:02;69.53;;;34.60;;
77158;SDS011;66129;45.890;13.714;2023-02-02T08:53:29;69.25;;;34.15;;
77158;SDS011;66129;45.890;13.714;2023-02-02T08:55:58;68.55;;;33.95;;
77158;SDS011;66129;45.890;13.714;2023-02-02T08:58:35;65.43;;;33.33;;
77158;SDS011;66129;45.890;13.714;2023-02-02T09:01:07;62.15;;;30.90;;
77158;SDS011;66129;45.890;13.714;2023-02-02T09:06:07;63.47;;;31.13;;
77158;SDS011;66129;45.890;13.714;2023-02-02T09:08:35;66.00;;;33.65;;
77158;SDS011;66129;45.890;13.714;2023-02-02T09:11:02;71.90;;;36.92;;
77158;SDS011;66129;45.890;13.714;2023-02-02T09:13:32;64.47;;;32.58;;
77158;SDS011;66129;45.890;13.714;2023-02-02T09:15:58;65.00;;;35.25;;
77158;SDS011;66129;45.890;13.714;2023-02-02T09:18:25;68.25;;;35.05;;
77158;SDS011;66129;45.890;13.714;2023-02-02T09:20:51;62.75;;;30.85;;
77158;SDS011;66129;45.890;13.714;2023-02-02T09:23:16;67.55;;;35.88;;
77158;SDS011;66129;45.890;13.714;2023-02-02T09:25:42;69.18;;;36.90;;
77158;SDS011;66129;45.890;13.714;2023-02-02T09:28:07;66.50;;;34.60;;
77158;SDS011;66129;45.890;13.714;2023-02-02T09:30:33;66.32;;;34.67;;
77158;SDS011;66129;45.890;13.714;2023-02-02T09:32:58;66.93;;;33.45;;
77158;SDS011;66129;45.890;13.714;2023-02-02T09:35:23;61.33;;;33.00;;
77158;SDS011;66129;45.890;13.714;2023-02-02T09:37:49;69.63;;;35.15;;
77158;SDS011;66129;45.890;13.714;2023-02-02T09:40:16;69.15;;;35.22;;
77158;SDS011;66129;45.890;13.714;2023-02-02T09:45:20;64.07;;;33.45;;
77158;SDS011;66129;45.890;13.714;2023-02-02T09:48:14;68.85;;;34.17;;
77158;SDS011;66129;45.890;13.714;2023-02-02T09:50:48;66.88;;;34.67;;
77158;SDS011;66129;45.890;13.714;2023-02-02T09:55:54;64.50;;;34.83;;
77158;SDS011;66129;45.890;13.714;2023-02-02T10:01:10;63.13;;;34.03;;
77158;SDS011;66129;45.890;13.714;2023-02-02T10:03:41;63.92;;;33.05;;
77158;SDS011;66129;45.890;13.714;2023-02-02T10:08:56;67.75;;;37.03;;
77158;SDS011;66129;45.890;13.714;2023-02-02T10:11:35;66.22;;;36.53;;
77158;SDS011;66129;45.890;13.714;2023-02-02T10:14:08;64.20;;;33.88;;
77158;SDS011;66129;45.890;13.714;2023-02-02T10:16:42;60.92;;;34.38;;
77158;SDS011;66129;45.890;13.714;2023-02-02T10:19:09;69.60;;;38.35;;
77158;SDS011;66129;45.890;13.714;2023-02-02T10:21:39;66.18;;;34.70;;
77158;SDS011;66129;45.890;13.714;2023-02-02T10:24:27;62.60;;;33.97;;
77158;SDS011;66129;45.890;13.714;2023-02-02T10:27:00;63.65;;;34.67;;
77158;SDS011;66129;45.890;13.714;2023-02-02T10:35:06;64.35;;;33.85;;
77158;SDS011;66129;45.890;13.714;2023-02-02T10:37:47;62.38;;;35.13;;
77158;SDS011;66129;45.890;13.714;2023-02-02T10:40:25;67.95;;;36.08;;
77158;SDS011;66129;45.890;13.714;2023-02-02T10:49:23;63.28;;;33.38;;
77158;SDS011;66129;45.890;13.714;2023-02-02T10:51:53;66.60;;;34.72;;
77158;SDS011;66129;45.890;13.714;2023-02-02T10:54:27;67.55;;;37.42;;
77158;SDS011;66129;45.890;13.714;2023-02-02T10:57:02;68.50;;;36.90;;
77158;SDS011;66129;45.890;13.714;2023-02-02T10:59:31;61.28;;;34.00;;
77158;SDS011;66129;45.890;13.714;2023-02-02T11:02:00;61.17;;;34.33;;
77158;SDS011;66129;45.890;13.714;2023-02-02T11:04:25;66.28;;;36.20;;
77158;SDS011;66129;45.890;13.714;2023-02-02T11:07:11;64.32;;;34.65;;
77158;SDS011;66129;45.890;13.714;2023-02-02T11:09:44;59.80;;;32.10;;
77158;SDS011;66129;45.890;13.714;2023-02-02T11:12:21;66.13;;;34.90;;
77158;SDS011;66129;45.890;13.714;2023-02-02T11:17:38;62.78;;;36.65;;
77158;SDS011;66129;45.890;13.714;2023-02-02T11:20:12;64.05;;;35.05;;
77158;SDS011;66129;45.890;13.714;2023-02-02T11:22:59;59.25;;;35.22;;
77158;SDS011;66129;45.890;13.714;2023-02-02T11:25:30;60.45;;;36.10;;
77158;SDS011;66129;45.890;13.714;2023-02-02T11:27:59;59.97;;;34.85;;
77158;SDS011;66129;45.890;13.714;2023-02-02T11:30:35;62.40;;;37.53;;
77158;SDS011;66129;45.890;13.714;2023-02-02T11:35:53;64.75;;;36.83;;
77158;SDS011;66129;45.890;13.714;2023-02-02T11:38:21;57.30;;;33.85;;
77158;SDS011;66129;45.890;13.714;2023-02-02T11:41:05;63.15;;;37.83;;
77158;SDS011;66129;45.890;13.714;2023-02-02T11:46:27;66.47;;;38.30;;
77158;SDS011;66129;45.890;13.714;2023-02-02T11:51:24;60.92;;;36.10;;
77158;SDS011;66129;45.890;13.714;2023-02-02T11:54:02;66.85;;;38.47;;
77158;SDS011;66129;45.890;13.714;2023-02-02T11:56:30;61.13;;;34.92;;
77158;SDS011;66129;45.890;13.714;2023-02-02T11:58:57;62.92;;;35.85;;
77158;SDS011;66129;45.890;13.714;2023-02-02T12:01:35;70.82;;;39.22;;
77158;SDS011;66129;45.890;13.714;2023-02-02T12:04:28;66.00;;;37.00;;
77158;SDS011;66129;45.890;13.714;2023-02-02T12:06:53;63.72;;;38.35;;
77158;SDS011;66129;45.890;13.714;2023-02-02T12:09:22;65.93;;;36.25;;
77158;SDS011;66129;45.890;13.714;2023-02-02T12:15:09;67.15;;;37.10;;
77158;SDS011;66129;45.890;13.714;2023-02-02T12:17:25;65.85;;;37.80;;
77158;SDS011;66129;45.890;13.714;2023-02-02T12:31:10;71.05;;;37.45;;
77158;SDS011;66129;45.890;13.714;2023-02-02T12:33:52;68.68;;;35.70;;
77158;SDS011;66129;45.890;13.714;2023-02-02T12:42:10;65.30;;;35.67;;
77158;SDS011;66129;45.890;13.714;2023-02-02T12:44:53;66.35;;;34.88;;
77158;SDS011;66129;45.890;13.714;2023-02-02T12:47:45;63.63;;;34.95;;
77158;SDS011;66129;45.890;13.714;2023-02-02T12:50:30;66.63;;;34.78;;
77158;SDS011;66129;45.890;13.714;2023-02-02T12:53:05;57.95;;;33.10;;
77158;SDS011;66129;45.890;13.714;2023-02-02T13:04:03;70.07;;;37.45;;
77158;SDS011;66129;45.890;13.714;2023-02-02T13:09:12;62.83;;;34.45;;
77158;SDS011;66129;45.890;13.714;2023-02-02T13:16:49;68.18;;;36.53;;
77158;SDS011;66129;45.890;13.714;2023-02-02T13:20:01;66.10;;;34.50;;
77158;SDS011;66129;45.890;13.714;2023-02-02T13:22:15;71.63;;;37.80;;
77158;SDS011;66129;45.890;13.714;2023-02-02T13:24:44;69.10;;;35.60;;
77158;SDS011;66129;45.890;13.714;2023-02-02T13:27:13;66.93;;;34.15;;
77158;SDS011;66129;45.890;13.714;2023-02-02T13:30:02;69.45;;;35.65;;
77158;SDS011;66129;45.890;13.714;2023-02-02T13:32:35;79.13;;;40.97;;
77158;SDS011;66129;45.890;13.714;2023-02-02T13:35:09;70.60;;;36.60;;
77158;SDS011;66129;45.890;13.714;2023-02-02T13:37:50;68.70;;;35.67;;
77158;SDS011;66129;45.890;13.714;2023-02-02T13:43:02;65.90;;;36.17;;
77158;SDS011;66129;45.890;13.714;2023-02-02T13:45:47;70.47;;;36.67;;
77158;SDS011;66129;45.890;13.714;2023-02-02T13:54:09;69.05;;;36.53;;
77158;SDS011;66129;45.890;13.714;2023-02-02T14:05:07;70.32;;;38.78;;
77158;SDS011;66129;45.890;13.714;2023-02-02T14:07:46;76.93;;;37.63;;
77158;SDS011;66129;45.890;13.714;2023-02-02T14:10:23;65.18;;;37.50;;
77158;SDS011;66129;45.890;13.714;2023-02-02T14:12:51;71.25;;;37.40;;
77158;SDS011;66129;45.890;13.714;2023-02-02T14:15:19;66.70;;;38.75;;
77158;SDS011;66129;45.890;13.714;2023-02-02T14:18:00;71.38;;;36.97;;
77158;SDS011;66129;45.890;13.714;2023-02-02T14:20:40;71.70;;;37.53;;
77158;SDS011;66129;45.890;13.714;2023-02-02T14:26:19;69.10;;;36.67;;
77158;SDS011;66129;45.890;13.714;2023-02-02T14:34:48;72.60;;;38.22;;
77158;SDS011;66129;45.890;13.714;2023-02-02T14:45:40;78.07;;;37.30;;
77158;SDS011;66129;45.890;13.714;2023-02-02T14:50:43;79.15;;;38.65;;
77158;SDS011;66129;45.890;13.714;2023-02-02T14:53:33;80.28;;;39.60;;
77158;SDS011;66129;45.890;13.714;2023-02-02T14:56:03;77.97;;;39.13;;
77158;SDS011;66129;45.890;13.714;2023-02-02T14:58:33;77.95;;;38.88;;
77158;SDS011;66129;45.890;13.714;2023-02-02T15:06:02;81.35;;;40.33;;
77158;SDS011;66129;45.890;13.714;2023-02-02T15:08:38;77.88;;;38.47;;
77158;SDS011;66129;45.890;13.714;2023-02-02T15:11:04;79.13;;;41.03;;
77158;SDS011;66129;45.890;13.714;2023-02-02T15:13:51;79.47;;;38.35;;
77158;SDS011;66129;45.890;13.714;2023-02-02T15:16:26;76.78;;;38.55;;
77158;SDS011;66129;45.890;13.714;2023-02-02T15:18:59;87.97;;;38.47;;
77158;SDS011;66129;45.890;13.714;2023-02-02T15:21:31;82.05;;;41.25;;
77158;SDS011;66129;45.890;13.714;2023-02-02T15:26:31;100.05;;;47.67;;
77158;SDS011;66129;45.890;13.714;2023-02-02T15:29:05;131.98;;;58.55;;
77158;SDS011;66129;45.890;13.714;2023-02-02T15:31:45;78.68;;;39.05;;
77158;SDS011;66129;45.890;13.714;2023-02-02T15:34:26;87.45;;;39.85;;
77158;SDS011;66129;45.890;13.714;2023-02-02T15:37:07;92.00;;;42.08;;
77158;SDS011;66129;45.890;13.714;2023-02-02T15:39:40;119.30;;;51.85;;
77158;SDS011;66129;45.890;13.714;2023-02-02T15:42:20;88.32;;;38.63;;
77158;SDS011;66129;45.890;13.714;2023-02-02T15:50:46;88.35;;;41.30;;
77158;SDS011;66129;45.890;13.714;2023-02-02T15:53:18;88.32;;;43.40;;
77158;SDS011;66129;45.890;13.714;2023-02-02T15:55:47;79.70;;;39.22;;
77158;SDS011;66129;45.890;13.714;2023-02-02T16:00:57;81.53;;;41.38;;
77158;SDS011;66129;45.890;13.714;2023-02-02T16:06:12;94.20;;;45.13;;
77158;SDS011;66129;45.890;13.714;2023-02-02T16:08:37;88.45;;;41.72;;
77158;SDS011;66129;45.890;13.714;2023-02-02T16:11:22;93.82;;;44.80;;
77158;SDS011;66129;45.890;13.714;2023-02-02T16:16:34;73.55;;;36.50;;
77158;SDS011;66129;45.890;13.714;2023-02-02T16:24:00;81.38;;;37.03;;
77158;SDS011;66129;45.890;13.714;2023-02-02T16:26:29;73.07;;;37.03;;
77158;SDS011;66129;45.890;13.714;2023-02-02T16:28:56;82.00;;;37.30;;
77158;SDS011;66129;45.890;13.714;2023-02-02T16:31:22;81.20;;;40.05;;
77158;SDS011;66129;45.890;13.714;2023-02-02T16:33:49;86.90;;;40.03;;
77158;SDS011;66129;45.890;13.714;2023-02-02T16:36:22;89.45;;;41.83;;
77158;SDS011;66129;45.890;13.714;2023-02-02T16:38:49;78.43;;;36.97;;
77158;SDS011;66129;45.890;13.714;2023-02-02T16:43:54;80.18;;;39.58;;
77158;SDS011;66129;45.890;13.714;2023-02-02T16:49:17;82.38;;;38.67;;
77158;SDS011;66129;45.890;13.714;2023-02-02T16:51:47;78.32;;;36.30;;
77158;SDS011;66129;45.890;13.714;2023-02-02T16:54:31;76.63;;;37.22;;
77158;SDS011;66129;45.890;13.714;2023-02-02T16:57:01;72.80;;;37.22;;
77158;SDS011;66129;45.890;13.714;2023-02-02T16:59:37;85.20;;;37.60;;